Data for 07/10/2016

Time Sea-Level Adjusted Pressure Absolute Pressure Temperature Relative Humidity Dew Point   
(mb) (inHg) (mb) (inHg) (C) (F) (%) (C) (F)
00:05 1018 30.06 847 25.01 14.1 57.5 75 9.7 49.5
00:10 1018 30.06 847 25.01 14.1 57.4 71 9.1 48.3
00:15 1018 30.06 847 25.01 14.3 57.8 75 10.1 50.2
00:20 1018 30.06 848 25.04 14.4 57.9 76 10.2 50.3
00:25 1019 30.09 848 25.04 14.5 58.1 75 10.2 50.3
00:30 1019 30.09 848 25.04 14.5 58 80 11.1 51.9
00:35 1019 30.09 848 25.04 14 57.1 82 11 51.9
00:40 1019 30.09 848 25.04 13.5 56.4 84 10.9 51.6
00:45 1019 30.09 848 25.04 13.2 55.8 83 10.5 50.8
00:50 1019 30.09 848 25.04 13.1 55.5 85 10.7 51.2
00:55 1019 30.09 848 25.04 13 55.4 86 10.7 51.3
01:00 1019 30.09 848 25.04 12.9 55.2 87 10.9 51.5
01:05 1018 30.06 848 25.04 12.7 54.8 89 10.9 51.7
01:10 1018 30.06 848 25.04 12.5 54.6 90 10.9 51.6
01:15 1019 30.09 848 25.04 12.6 54.6 90 11 51.7
01:20 1018 30.06 847 25.01 12.7 54.8 90 11 51.8
01:25 1018 30.06 847 25.01 12.5 54.6 90 11 51.8
01:30 1018 30.06 847 25.01 12.5 54.6 91 11.1 51.9
01:35 1017 30.03 846 24.98 12.4 54.4 91 11 51.8
01:40 1017 30.03 846 24.98 12.4 54.2 91 10.9 51.6
01:45 1017 30.03 846 24.98 12.3 54.2 90 10.8 51.4
01:50 1017 30.03 846 24.98 12.3 54.2 90 10.7 51.2
01:55 1016 30 846 24.98 12.3 54.1 89 10.6 51.1
02:00 1016 30 846 24.98 12.2 54 89 10.5 51
02:05 1016 30 846 24.98 12.3 54.1 89 10.5 50.9
02:10 1016 30 845 24.95 12.4 54.3 87 10.3 50.6
02:15 1016 30 845 24.95 12.7 54.8 83 9.9 49.9
02:20 1016 30 845 24.95 12.9 55.2 81 9.8 49.6
02:25 1016 30 845 24.95 12.9 55.3 84 10.4 50.6
02:30 1016 30 845 24.95 12.6 54.6 87 10.4 50.8
02:35 1016 30 845 24.95 12.5 54.5 86 10.2 50.3
02:40 1016 30 845 24.95 12.6 54.8 85 10.1 50.3
02:45 1016 30 845 24.95 12.8 55 84 10.1 50.3
02:50 1016 30 846 24.98 12.8 55 84 10.2 50.4
02:55 1016 30 845 24.95 12.7 54.9 85 10.4 50.6
03:00 1016 30 845 24.95 12.7 54.8 84 10.1 50.1
03:05 1015 29.97 844 24.92 12.7 54.9 83 10 50
03:10 1015 29.97 844 24.92 12.8 55 81 9.6 49.3
03:15 1015 29.97 844 24.92 12.9 55.2 81 9.6 49.4
03:20 1015 29.97 844 24.92 12.8 55.1 81 9.7 49.5
03:25 1015 29.97 845 24.95 12.7 54.8 82 9.7 49.5
03:30 1015 29.97 845 24.95 12.7 54.9 81 9.5 49.2
03:35 1016 30 845 24.95 12.7 54.9 83 9.9 49.7
03:40 1016 30 845 24.95 12.6 54.7 84 10 49.9
03:45 1016 30 845 24.95 12.6 54.7 82 9.6 49.2
03:50 1016 30 845 24.95 12.7 54.9 81 9.6 49.3
03:55 1016 30 845 24.95 12.8 55 80 9.5 49
04:00 1016 30 845 24.95 12.8 55.1 81 9.6 49.3
04:05 1016 30 845 24.95 12.7 54.9 81 9.6 49.3
04:10 1016 30 846 24.98 12.6 54.7 82 9.6 49.2
04:15 1016 30 845 24.95 12.5 54.4 83 9.6 49.3
04:20 1016 30 845 24.95 12.3 54.2 84 9.8 49.6
04:25 1016 30 845 24.95 12.2 53.9 85 9.7 49.4
04:30 1016 30 845 24.95 12 53.7 85 9.7 49.4
04:35 1016 30 845 24.95 11.9 53.5 86 9.6 49.4
04:40 1016 30 846 24.98 11.9 53.4 87 9.9 49.7
04:45 1017 30.03 846 24.98 11.8 53.3 87 9.8 49.6
04:50 1017 30.03 846 24.98 11.8 53.2 87 9.7 49.5
04:55 1016 30 846 24.98 11.8 53.3 86 9.5 49.1
05:00 1016 30 846 24.98 11.9 53.5 85 9.5 49
05:05 1016 30 846 24.98 12.1 53.9 84 9.6 49.2
05:10 1016 30 845 24.95 12 53.7 86 9.8 49.7
05:15 1016 30 846 24.98 11.9 53.4 88 10 50
05:20 1016 30 845 24.95 11.7 53 90 10 50.1
05:25 1016 30 845 24.95 11.6 52.9 90 10 50
05:30 1016 30 845 24.95 11.6 52.9 90 10 50
05:35 1016 30 845 24.95 11.7 53 89 9.9 49.9
05:40 1016 30 845 24.95 11.8 53.2 88 9.9 49.8
05:45 1016 30 845 24.95 11.9 53.4 87 9.8 49.6
05:50 1016 30 845 24.95 11.9 53.3 87 9.8 49.6
05:55 1016 30 845 24.95 11.7 53.1 88 9.8 49.6
06:00 1016 30 845 24.95 11.7 53.1 88 9.8 49.6
06:05 1016 30 845 24.95 11.7 53.1 89 9.9 49.9
06:10 1015 29.97 845 24.95 11.7 53.1 88 9.8 49.7
06:15 1015 29.97 844 24.92 11.7 53.1 87 9.7 49.5
06:20 1015 29.97 844 24.92 11.8 53.2 87 9.7 49.4
06:25 1014 29.94 844 24.92 11.8 53.2 87 9.6 49.3
06:30 1014 29.94 844 24.92 11.8 53.2 87 9.6 49.3
06:35 1014 29.94 844 24.92 11.8 53.2 87 9.7 49.4
06:40 1015 29.97 844 24.92 11.8 53.3 87 9.7 49.4
06:45 1015 29.97 844 24.92 12 53.6 85 9.6 49.3
06:50 1015 29.97 844 24.92 12.1 53.8 86 9.8 49.7
06:55 1015 29.97 845 24.95 12 53.6 86 9.8 49.7
07:00 1016 30 845 24.95 12 53.6 87 9.9 49.9
07:05 1016 30 845 24.95 11.9 53.4 88 10 50.1
07:10 1016 30 845 24.95 12 53.6 87 10 50
07:15 1015 29.97 844 24.92 12 53.6 87 9.9 49.8
07:20 1015 29.97 844 24.92 12.1 53.7 87 9.9 49.9
07:25 1015 29.97 844 24.92 12.1 53.9 87 10.1 50.1
07:30 1015 29.97 844 24.92 12.1 53.9 86 9.9 49.9
07:35 1015 29.97 845 24.95 12.3 54.2 84 9.8 49.6
07:40 1015 29.97 845 24.95 12.5 54.5 85 10.1 50.1
07:45 1015 29.97 844 24.92 12.3 54.2 85 10 50
07:50 1015 29.97 844 24.92 12.2 54 86 9.9 49.9
07:55 1014 29.94 844 24.92 12.2 54 85 9.8 49.7
08:00 1014 29.94 843 24.89 12.2 54 85 9.8 49.6
08:05 1014 29.94 843 24.89 12.3 54.2 83 9.5 49.2
08:10 1014 29.94 843 24.89 12.5 54.4 83 9.6 49.3
08:15 1014 29.94 843 24.89 12.6 54.7 82 9.7 49.5
08:20 1014 29.94 843 24.89 12.7 54.8 83 9.9 49.8
08:25 1014 29.94 843 24.89 12.8 55 83 9.9 49.9
08:30 1013 29.91 843 24.89 12.9 55.3 81 9.8 49.6
08:35 1013 29.91 843 24.89 13.1 55.6 81 9.9 49.8
08:40 1013 29.91 843 24.89 13.3 55.9 80 10 49.9
08:45 1013 29.91 843 24.89 13.4 56 81 10.2 50.4
08:50 1013 29.91 843 24.89 13.4 56.1 81 10.3 50.6
08:55 1013 29.91 843 24.89 13.5 56.3 81 10.3 50.6
09:00 1013 29.91 843 24.89 13.5 56.4 81 10.3 50.5
09:05 1013 29.91 843 24.89 13.7 56.6 81 10.5 50.8
09:10 1013 29.91 842 24.86 13.8 56.9 81 10.7 51.2
09:15 1013 29.91 842 24.86 14.1 57.3 78 10.3 50.5
09:20 1013 29.91 842 24.86 14.2 57.5 78 10.5 50.8
09:25 1013 29.91 842 24.86 14.4 57.9 76 10.2 50.4
09:30 1013 29.91 842 24.86 14.7 58.5 76 10.6 51
09:35 1013 29.91 842 24.86 15 58.9 75 10.6 51.1
09:40 1013 29.91 842 24.86 15.2 59.4 69 9.7 49.5
09:45 1013 29.91 842 24.86 15.3 59.5 69 9.7 49.5
09:50 1013 29.91 842 24.86 15.5 59.8 69 9.9 49.8
09:55 1013 29.91 842 24.86 15.7 60.2 67 9.6 49.3
10:00 1013 29.91 842 24.86 16 60.7 65 9.5 49
10:05 1013 29.91 842 24.86 16.1 61 62 8.9 48.1
10:10 1013 29.91 842 24.86 16.1 61 62 9 48.3
10:15 1013 29.91 842 24.86 16.5 61.8 60 8.9 48
10:20 1013 29.91 842 24.86 16.7 62.1 62 9.5 49.1
10:25 1012 29.88 842 24.86 17.1 62.8 58 8.8 47.9
10:30 1013 29.91 842 24.86 17.8 64.1 56 8.9 48.1
10:35 1012 29.88 842 24.86 18.2 64.8 53 8.6 47.5
10:40 1012 29.88 842 24.86 19.2 66.6 50 8.6 47.4
10:45 1012 29.88 842 24.86 19.1 66.5 51 9 48.2
10:50 1012 29.88 842 24.86 19.5 67.1 50 9 48.1
10:55 1012 29.88 841 24.83 19.5 67.1 52 9.6 49.3
11:00 1012 29.88 841 24.83 18.8 65.8 59 10.7 51.2
11:05 1012 29.88 842 24.86 18 64.4 57 9.5 49.1
11:10 1012 29.88 842 24.86 17.8 64 58 9.6 49.3
11:15 1012 29.88 842 24.86 17.7 63.8 58 9.3 48.7
11:20 1012 29.88 841 24.83 18.7 65.7 57 10.1 50.2
11:25 1012 29.88 841 24.83 17.9 64.3 60 10.2 50.3
11:30 1012 29.88 841 24.83 17.8 64.1 58 9.5 49.2
11:35 1012 29.88 841 24.83 19.1 66.4 56 10.2 50.3
11:40 1012 29.88 841 24.83 19.3 66.7 54 9.9 49.7
11:45 1012 29.88 841 24.83 19.8 67.6 50 9.2 48.6
11:50 1012 29.88 841 24.83 19.4 66.9 53 9.7 49.5
11:55 1012 29.88 841 24.83 19.4 66.9 52 9.3 48.7
12:00 1012 29.88 841 24.83 19.8 67.6 50 9.2 48.5
12:05 1012 29.88 841 24.83 20.2 68.4 49 9.4 49
12:10 1011 29.85 841 24.83 19.7 67.4 51 9.5 49
12:15 1011 29.85 840 24.81 20.1 68.1 49 9.1 48.4
12:20 1011 29.85 840 24.81 19.8 67.7 52 9.8 49.6
12:25 1011 29.85 840 24.81 19.5 67.1 49 8.7 47.7
12:30 1011 29.85 840 24.81 20.4 68.7 48 9.1 48.3
12:35 1011 29.85 840 24.81 20.5 68.9 49 9.5 49.2
12:40 1010 29.83 840 24.81 20.9 69.6 47 9.3 48.7
12:45 1010 29.83 840 24.81 20.6 69 47 9.1 48.4
12:50 1010 29.83 839 24.78 20.7 69.3 45 8.6 47.4
12:55 1010 29.83 839 24.78 20.9 69.5 46 8.9 48.1
13:00 1010 29.83 839 24.78 20.6 69.1 46 8.9 48
13:05 1010 29.83 839 24.78 21 69.7 46 8.9 48
13:10 1010 29.83 839 24.78 21.3 70.4 44 8.8 47.9
13:15 1010 29.83 839 24.78 21.5 70.8 42 8.3 46.9
13:20 1009 29.8 839 24.78 20.8 69.4 45 8.5 47.2
13:25 1009 29.8 838 24.75 20.9 69.7 43 8 46.3
13:30 1009 29.8 838 24.75 21 69.8 43 8.1 46.6
13:35 1009 29.8 838 24.75 21 69.8 40 6.9 44.4
13:40 1009 29.8 838 24.75 20.8 69.5 41 7.4 45.3
13:45 1009 29.8 838 24.75 21.2 70.1 38 6.6 43.9
13:50 1009 29.8 838 24.75 21 69.9 39 6.5 43.8
13:55 1009 29.8 838 24.75 21 69.7 38 6.3 43.3
14:00 1009 29.8 838 24.75 20.9 69.6 40 7 44.7
14:05 1009 29.8 838 24.75 20.5 68.9 39 6.3 43.4
14:10 1009 29.8 838 24.75 20.6 69 42 7.3 45.1
14:15 1009 29.8 838 24.75 20.4 68.6 40 6.4 43.5
14:20 1009 29.8 838 24.75 20.7 69.3 45 8.7 47.6
14:25 1009 29.8 838 24.75 20.4 68.6 52 10.3 50.5
14:30 1010 29.83 839 24.78 18.3 64.9 56 9.6 49.3
14:35 1010 29.83 839 24.78 17.3 63.1 57 8.9 48
14:40 1011 29.85 840 24.81 16.3 61.3 60 8.5 47.4
14:45 1011 29.85 840 24.81 15.4 59.6 58 7.2 44.9
14:50 1011 29.85 840 24.81 14.6 58.3 56 6 42.8
14:55 1012 29.88 841 24.83 14.2 57.5 58 6.2 43.1
15:00 1012 29.88 841 24.83 14 57.2 59 6.1 43
15:05 1012 29.88 841 24.83 14 57.2 58 5.9 42.7
15:10 1013 29.91 842 24.86 14 57.2 60 6.5 43.7
15:15 1013 29.91 843 24.89 13.5 56.3 62 6.3 43.4
15:20 1014 29.94 843 24.89 13.3 55.9 63 6.5 43.7
15:25 1014 29.94 843 24.89 13.3 55.9 64 6.7 44
15:30 1013 29.91 843 24.89 13.5 56.3 64 6.8 44.3
15:35 1013 29.91 842 24.86 13.3 56 65 7 44.7
15:40 1013 29.91 842 24.86 13.4 56 64 6.8 44.2
15:45 1013 29.91 842 24.86 13.6 56.4 63 6.6 43.9
15:50 1013 29.91 842 24.86 13.7 56.7 61 6.5 43.7
15:55 1013 29.91 842 24.86 13.9 57.1 61 6.5 43.7
16:00 1013 29.91 842 24.86 13.8 56.8 61 6.4 43.6
16:05 1013 29.91 843 24.89 13.9 57 60 6.2 43.2
16:10 1013 29.91 842 24.86 13.9 57 60 6.4 43.5
16:15 1013 29.91 843 24.89 13.2 55.7 63 6.5 43.6
16:20 1013 29.91 842 24.86 13.5 56.3 59 5.8 42.5
16:25 1013 29.91 843 24.89 13.6 56.5 60 6 42.9
16:30 1013 29.91 842 24.86 13.7 56.6 58 5.7 42.2
16:35 1013 29.91 842 24.86 13.8 56.8 59 6 42.7
16:40 1013 29.91 842 24.86 14 57.1 58 5.9 42.6
16:45 1013 29.91 842 24.86 13.8 56.9 58 5.8 42.5
16:50 1013 29.91 842 24.86 13.7 56.7 60 6.1 42.9
16:55 1013 29.91 842 24.86 13.5 56.4 62 6.5 43.7
17:00 1013 29.91 842 24.86 13.4 56.2 64 6.9 44.4
17:05 1013 29.91 842 24.86 13.2 55.8 69 7.6 45.7
17:10 1013 29.91 843 24.89 13.2 55.7 67 7.2 44.9
17:15 1013 29.91 843 24.89 12.9 55.1 71 7.7 45.8
17:20 1014 29.94 843 24.89 12.5 54.5 73 7.9 46.1
17:25 1014 29.94 843 24.89 12.2 54 75 8 46.5
17:30 1014 29.94 843 24.89 12 53.5 76 7.9 46.2
17:35 1014 29.94 843 24.89 11.8 53.3 79 8.3 46.9
17:40 1014 29.94 843 24.89 11.7 53 80 8.3 46.9
17:45 1014 29.94 843 24.89 11.4 52.6 80 8.2 46.7
17:50 1014 29.94 843 24.89 11.2 52.1 79 7.7 45.9
17:55 1014 29.94 843 24.89 10.9 51.7 82 8 46.3
18:00 1014 29.94 843 24.89 10.6 51.1 85 8.2 46.8
18:05 1014 29.94 843 24.89 10.6 51 83 7.8 46
18:10 1014 29.94 843 24.89 10.4 50.8 84 7.8 46.1
18:15 1014 29.94 843 24.89 10.4 50.7 87 8.2 46.8
18:20 1013 29.91 843 24.89 10.2 50.4 87 8.2 46.8
18:25 1013 29.91 842 24.86 10.1 50.2 87 8 46.5
18:30 1013 29.91 842 24.86 10.1 50.1 83 7.4 45.3
18:35 1013 29.91 842 24.86 10.3 50.5 86 8.1 46.6
18:40 1013 29.91 843 24.89 10.3 50.6 87 8.3 46.9
18:45 1013 29.91 843 24.89 10.2 50.4 86 8 46.4
18:50 1013 29.91 842 24.86 10.2 50.4 85 7.8 46.1
18:55 1013 29.91 842 24.86 10.3 50.5 85 7.9 46.3
19:00 1013 29.91 842 24.86 10.3 50.5 85 7.9 46.2
19:05 1013 29.91 842 24.86 10.2 50.4 85 7.8 46.1
19:10 1013 29.91 842 24.86 10.1 50.2 85 7.7 45.9
19:15 1013 29.91 842 24.86 10.1 50.2 85 7.6 45.8
19:20 1013 29.91 842 24.86 10.1 50.2 85 7.8 46
19:25 1013 29.91 842 24.86 10.2 50.3 84 7.7 45.8
19:30 1013 29.91 842 24.86 10.2 50.4 81 7.1 44.8
19:35 1013 29.91 842 24.86 10 50.1 84 7.5 45.4
19:40 1013 29.91 842 24.86 9.8 49.6 83 7.1 44.8
19:45 1013 29.91 842 24.86 9.9 49.7 82 7 44.6
19:50 1013 29.91 842 24.86 10 50.1 81 6.9 44.4
19:55 1013 29.91 842 24.86 10 49.9 83 7.2 45
20:00 1013 29.91 842 24.86 9.8 49.7 84 7.2 45
20:05 1013 29.91 842 24.86 9.8 49.6 83 7 44.6
20:10 1013 29.91 842 24.86 9.8 49.6 83 7 44.7
20:15 1013 29.91 842 24.86 9.8 49.6 82 6.9 44.5
20:20 1012 29.88 841 24.83 9.5 49.2 86 7.4 45.3
20:25 1012 29.88 842 24.86 9.2 48.6 88 7.4 45.3
20:30 1013 29.91 842 24.86 9.5 49 88 7.5 45.6
20:35 1013 29.91 842 24.86 9.5 49.2 86 7.4 45.3
20:40 1013 29.91 842 24.86 9.5 49.2 86 7.3 45.2
20:45 1013 29.91 842 24.86 9.4 48.9 85 7 44.6
20:50 1013 29.91 843 24.89 9.1 48.4 85 6.8 44.3
20:55 1013 29.91 843 24.89 8.5 47.3 83 5.7 42.3
21:00 1014 29.94 843 24.89 7.9 46.1 84 5.3 41.5
21:05 1014 29.94 843 24.89 7.6 45.8 86 5.4 41.8
21:10 1014 29.94 843 24.89 7.7 45.8 86 5.4 41.8
21:15 1014 29.94 843 24.89 7.7 45.8 84 5.1 41.2
21:20 1013 29.91 843 24.89 7.5 45.5 85 5.2 41.3
21:25 1013 29.91 843 24.89 7.5 45.6 84 5 41.1
21:30 1013 29.91 843 24.89 7.4 45.3 82 4.6 40.2
21:35 1013 29.91 842 24.86 7.4 45.3 85 5.1 41.2
21:40 1013 29.91 842 24.86 7.3 45.1 88 5.4 41.7
21:45 1013 29.91 842 24.86 7.2 44.9 89 5.5 41.9
21:50 1013 29.91 842 24.86 7.1 44.7 90 5.5 41.9
21:55 1013 29.91 842 24.86 7.1 44.8 90 5.6 42
22:00 1013 29.91 842 24.86 7.1 44.8 90 5.5 42
22:05 1013 29.91 842 24.86 7.1 44.8 89 5.5 41.9
22:10 1013 29.91 842 24.86 7.2 44.9 89 5.4 41.8
22:15 1013 29.91 842 24.86 7.2 45 88 5.3 41.6
22:20 1013 29.91 842 24.86 7.2 45 88 5.4 41.8
22:25 1013 29.91 842 24.86 7.4 45.2 84 4.9 40.8
22:30 1013 29.91 842 24.86 7.4 45.4 86 5.3 41.5
22:35 1013 29.91 842 24.86 7.4 45.4 87 5.5 41.8
22:40 1013 29.91 842 24.86 7.5 45.4 89 5.7 42.3
22:45 1013 29.91 842 24.86 7.5 45.6 89 5.8 42.4
22:50 1013 29.91 842 24.86 7.5 45.4 89 5.7 42.3
22:55 1013 29.91 842 24.86 7.5 45.4 88 5.7 42.2
23:00 1013 29.91 842 24.86 7.4 45.4 88 5.6 42.1
23:05 1013 29.91 842 24.86 7.5 45.4 86 5.3 41.6
23:10 1013 29.91 842 24.86 7.6 45.8 81 4.6 40.3
23:15 1013 29.91 843 24.89 8.1 46.6 80 4.8 40.6
23:20 1013 29.91 843 24.89 8.1 46.5 80 4.8 40.6
23:25 1013 29.91 843 24.89 7.8 46.1 83 5.1 41.2
23:30 1013 29.91 843 24.89 7.6 45.8 82 4.8 40.7
23:35 1013 29.91 843 24.89 7.5 45.5 82 4.6 40.3
23:40 1013 29.91 843 24.89 7.5 45.5 80 4.4 39.9
23:45 1013 29.91 843 24.89 7.6 45.7 80 4.3 39.8
23:50 1013 29.91 843 24.89 7.7 45.9 78 4.2 39.5
23:55 1013 29.91 842 24.86 7.9 46.2 79 4.5 40.1
24:00 1013 29.91 842 24.86 7.9 46.2 81 4.9 40.8